Time;durP1;ratioP1;P1;durP2;ratioP2;P2;SDS_P1;SDS_P2;PMS_P1;PMS_P2;Temp;Humidity;BMP_temperature;BMP_pressure;BME280_temperature;BME280_humidity;BME280_pressure;Samples;Min_cycle;Max_cycle;Signal;HPM_P1;HPM_P2
2024/01/18 00:02:00;;;;;;;16.63;12.40;;;0.50;99.90;;;;;;5100604;28;20034;-33
2024/01/18 00:04:25;;;;;;;18.42;11.82;;;0.50;99.90;;;;;;5100615;28;20020;-35
2024/01/18 00:06:51;;;;;;;15.68;10.68;;;0.50;99.90;;;;;;5099438;28;20028;-37
2024/01/18 00:09:22;;;;;;;12.90;9.93;;;0.50;99.90;;;;;;5100059;28;20035;-35
2024/01/18 00:11:47;;;;;;;14.02;10.68;;;0.50;99.90;;;;;;5099657;28;20016;-35
2024/01/18 00:14:13;;;;;;;12.05;9.55;;;0.50;99.90;;;;;;5100479;28;20037;-34
2024/01/18 00:16:39;;;;;;;12.63;9.90;;;0.50;99.90;;;;;;5100678;28;20150;-34
2024/01/18 00:19:04;;;;;;;13.32;10.57;;;0.50;99.90;;;;;;5099761;28;20024;-35
2024/01/18 00:21:30;;;;;;;15.10;10.70;;;0.50;99.90;;;;;;5099167;28;20031;-36
2024/01/18 00:23:55;;;;;;;13.90;9.90;;;0.50;99.90;;;;;;5099999;28;20236;-37
2024/01/18 00:26:21;;;;;;;14.27;10.38;;;0.50;99.90;;;;;;5099356;28;20100;-37
2024/01/18 00:28:47;;;;;;;13.93;10.77;;;0.50;99.90;;;;;;5099685;28;20402;-37
2024/01/18 00:31:13;;;;;;;14.00;10.43;;;0.50;99.90;;;;;;5100121;28;20475;-34
2024/01/18 00:33:39;;;;;;;13.93;10.30;;;0.40;99.90;;;;;;5098691;28;20821;-35
2024/01/18 00:36:05;;;;;;;14.48;10.38;;;0.40;99.90;;;;;;5099957;28;20039;-34
2024/01/18 00:38:31;;;;;;;15.50;11.40;;;0.40;99.90;;;;;;5099739;28;20045;-35
2024/01/18 00:40:56;;;;;;;13.40;10.05;;;0.40;99.90;;;;;;5099162;28;20482;-36
2024/01/18 00:43:22;;;;;;;14.15;9.88;;;0.30;99.90;;;;;;5099562;28;20035;-37
2024/01/18 00:45:48;;;;;;;16.77;11.35;;;0.30;99.90;;;;;;5100066;28;20024;-37
2024/01/18 00:48:13;;;;;;;16.27;10.13;;;0.30;99.90;;;;;;5098577;28;20027;-36
2024/01/18 00:50:39;;;;;;;15.18;12.00;;;0.30;99.90;;;;;;5099341;28;20428;-33
2024/01/18 00:53:04;;;;;;;15.68;12.93;;;0.30;99.90;;;;;;5099780;28;20055;-36
2024/01/18 00:55:32;;;;;;;19.48;13.63;;;0.20;99.90;;;;;;5098795;28;20146;-37
2024/01/18 00:58:01;;;;;;;22.13;15.50;;;0.20;99.90;;;;;;5099116;28;20030;-39
2024/01/18 01:00:27;;;;;;;18.05;14.10;;;0.20;99.90;;;;;;5099637;28;20038;-37
2024/01/18 01:02:53;;;;;;;17.92;13.52;;;0.20;99.90;;;;;;5098801;28;20023;-38
2024/01/18 01:05:21;;;;;;;20.75;14.18;;;0.20;99.90;;;;;;5099759;28;20023;-37
2024/01/18 01:07:47;;;;;;;17.30;12.73;;;0.20;99.90;;;;;;5099906;28;20024;-37
2024/01/18 01:10:13;;;;;;;22.60;16.30;;;0.10;99.90;;;;;;5098126;28;20047;-38
2024/01/18 01:12:38;;;;;;;21.23;15.23;;;0.10;99.90;;;;;;5100533;28;20067;-36
2024/01/18 01:15:04;;;;;;;23.33;15.60;;;0.10;99.90;;;;;;5103058;28;20542;-37
2024/01/18 01:17:30;;;;;;;23.33;16.90;;;0.10;99.90;;;;;;5102870;28;20134;-35
2024/01/18 01:19:55;;;;;;;23.73;15.77;;;0.10;99.90;;;;;;5103746;28;20097;-36
2024/01/18 01:22:21;;;;;;;29.35;19.05;;;0.10;99.90;;;;;;5102835;28;20031;-37
2024/01/18 01:24:46;;;;;;;23.17;16.75;;;0.10;99.90;;;;;;5104152;28;20027;-35
2024/01/18 01:27:12;;;;;;;26.55;17.77;;;0.10;99.90;;;;;;5103351;28;20031;-37
2024/01/18 01:29:38;;;;;;;31.40;19.45;;;0.10;99.90;;;;;;5102313;28;20027;-37
2024/01/18 01:32:03;;;;;;;27.83;20.27;;;0.10;99.90;;;;;;5104010;28;20034;-37
2024/01/18 01:34:29;;;;;;;26.65;18.65;;;0.10;99.90;;;;;;5103110;28;20024;-37
2024/01/18 01:36:54;;;;;;;31.85;21.02;;;0.10;99.90;;;;;;5102805;28;20055;-37
2024/01/18 01:39:20;;;;;;;31.08;20.02;;;0.10;99.90;;;;;;5103441;28;20092;-36
2024/01/18 01:41:49;;;;;;;22.50;16.83;;;0.10;99.90;;;;;;5103237;28;20105;-31
2024/01/18 01:44:14;;;;;;;20.20;15.63;;;0.10;99.90;;;;;;5102400;28;20516;-36
2024/01/18 01:46:40;;;;;;;22.42;16.67;;;0.10;99.90;;;;;;5103523;28;20110;-37
2024/01/18 01:49:06;;;;;;;22.10;16.02;;;0.00;99.90;;;;;;5102673;28;20719;-37
2024/01/18 01:51:48;;;;;;;29.77;21.33;;;0.00;99.90;;;;;;5102261;28;20109;-36
2024/01/18 01:54:15;;;;;;;28.70;20.63;;;0.00;99.90;;;;;;5102905;28;20023;-36
2024/01/18 01:56:45;;;;;;;32.05;21.27;;;-0.10;99.90;;;;;;5102592;28;20695;-35
2024/01/18 01:59:11;;;;;;;29.15;21.50;;;0.00;99.90;;;;;;5102138;28;20395;-32
2024/01/18 02:01:39;;;;;;;36.67;22.27;;;0.00;99.90;;;;;;5102604;28;20012;-33
2024/01/18 02:04:07;;;;;;;33.17;20.63;;;-0.10;99.90;;;;;;5103018;28;20076;-34
2024/01/18 02:06:34;;;;;;;27.40;18.90;;;-0.10;99.90;;;;;;5101339;28;20024;-34
2024/01/18 02:09:01;;;;;;;31.98;20.98;;;-0.10;99.90;;;;;;5102445;28;20040;-38
2024/01/18 02:11:27;;;;;;;34.65;24.00;;;-0.10;99.90;;;;;;5100330;28;20138;-34
2024/01/18 02:13:54;;;;;;;32.65;22.38;;;-0.10;99.90;;;;;;5101204;28;20119;-34
2024/01/18 02:16:21;;;;;;;32.20;23.33;;;-0.10;99.90;;;;;;5101093;28;20081;-37
2024/01/18 02:18:47;;;;;;;30.33;22.75;;;-0.10;99.90;;;;;;5101133;28;20062;-33
2024/01/18 02:21:15;;;;;;;38.95;23.52;;;-0.20;99.90;;;;;;5101722;28;20055;-32
2024/01/18 02:23:44;;;;;;;34.00;22.17;;;-0.20;99.90;;;;;;5100821;28;20072;-35
2024/01/18 02:26:12;;;;;;;34.80;23.33;;;-0.20;99.90;;;;;;5100958;28;20076;-35
2024/01/18 02:28:51;;;;;;;36.28;22.90;;;-0.20;99.90;;;;;;5100662;28;20054;-34
2024/01/18 02:31:16;;;;;;;33.88;23.45;;;-0.20;99.90;;;;;;5100629;28;20031;-35
2024/01/18 02:33:42;;;;;;;37.40;24.25;;;-0.20;99.90;;;;;;5099867;28;20122;-36
2024/01/18 02:36:08;;;;;;;44.53;28.77;;;-0.20;99.90;;;;;;5100170;28;20038;-36
2024/01/18 02:38:33;;;;;;;36.38;24.75;;;-0.30;99.90;;;;;;5100970;28;20044;-34
2024/01/18 02:40:59;;;;;;;36.75;24.88;;;-0.30;99.90;;;;;;5100182;28;20057;-34
2024/01/18 02:43:25;;;;;;;39.55;23.88;;;-0.30;99.90;;;;;;5100454;28;20034;-37
2024/01/18 02:45:50;;;;;;;39.90;24.85;;;-0.30;99.90;;;;;;5100687;28;20023;-37
2024/01/18 02:48:16;;;;;;;33.53;21.17;;;-0.40;99.90;;;;;;5099584;28;20032;-34
2024/01/18 02:50:42;;;;;;;35.47;23.33;;;-0.40;99.90;;;;;;5100539;28;20035;-34
2024/01/18 02:53:08;;;;;;;36.33;25.15;;;-0.40;99.90;;;;;;5099638;28;20051;-37
2024/01/18 02:55:33;;;;;;;37.40;25.67;;;-0.40;99.90;;;;;;5100384;28;20023;-35
2024/01/18 02:57:59;;;;;;;36.58;22.25;;;-0.40;99.90;;;;;;5099977;28;20691;-38
2024/01/18 03:00:28;;;;;;;37.70;24.30;;;-0.40;99.90;;;;;;5100994;28;20026;-34
2024/01/18 03:02:53;;;;;;;39.72;28.45;;;-0.40;99.90;;;;;;5100010;28;20023;-36
2024/01/18 03:05:19;;;;;;;50.13;32.92;;;-0.50;99.90;;;;;;5100432;28;20540;-38
2024/01/18 03:07:44;;;;;;;58.47;35.75;;;-0.50;99.90;;;;;;5099561;28;20870;-35
2024/01/18 03:10:10;;;;;;;45.22;29.17;;;-0.50;99.90;;;;;;5059730;28;1165536;-37
2024/01/18 03:12:37;;;;;;;39.63;27.13;;;-0.50;99.90;;;;;;5100916;28;20058;-36
2024/01/18 03:15:05;;;;;;;41.38;26.05;;;-0.60;99.90;;;;;;5100580;28;20441;-37
2024/01/18 03:17:31;;;;;;;44.03;29.75;;;-0.60;99.90;;;;;;5101383;28;20046;-38
2024/01/18 03:19:57;;;;;;;46.70;27.75;;;-0.60;99.90;;;;;;5101683;28;20020;-37
2024/01/18 03:22:23;;;;;;;43.13;28.40;;;-0.60;99.90;;;;;;5100794;28;20436;-36
2024/01/18 03:24:50;;;;;;;41.23;26.47;;;-0.60;99.90;;;;;;5101647;28;20024;-37
2024/01/18 03:27:19;;;;;;;40.87;27.33;;;-0.60;99.90;;;;;;5101093;28;20023;-39
2024/01/18 03:29:45;;;;;;;42.20;26.50;;;-0.60;99.90;;;;;;5101371;28;20020;-34
2024/01/18 03:32:12;;;;;;;47.45;30.40;;;-0.60;99.90;;;;;;5100813;28;20496;-37
2024/01/18 03:34:37;;;;;;;49.08;29.77;;;-0.60;99.90;;;;;;5100544;28;20024;-36
2024/01/18 03:37:03;;;;;;;38.80;25.33;;;-0.60;99.90;;;;;;5099611;28;20035;-38
2024/01/18 03:39:33;;;;;;;37.78;24.58;;;-0.60;99.90;;;;;;5100523;28;20027;-36
2024/01/18 03:41:59;;;;;;;40.90;26.27;;;-0.60;99.90;;;;;;5100402;28;20019;-31
2024/01/18 03:44:24;;;;;;;36.63;24.10;;;-0.60;99.90;;;;;;5100325;28;20027;-34
2024/01/18 03:46:50;;;;;;;43.42;27.38;;;-0.60;99.90;;;;;;5100412;28;20028;-37
2024/01/18 03:49:16;;;;;;;47.60;28.40;;;-0.70;99.90;;;;;;5099439;28;20034;-32
2024/01/18 03:51:42;;;;;;;39.53;27.23;;;-0.60;99.90;;;;;;5099950;28;20026;-36
2024/01/18 03:54:07;;;;;;;51.78;31.88;;;-0.60;99.90;;;;;;5100207;28;20051;-35
2024/01/18 03:56:33;;;;;;;47.75;28.70;;;-0.70;99.90;;;;;;5099995;28;20130;-36
2024/01/18 03:59:01;;;;;;;40.28;27.88;;;-0.70;99.90;;;;;;5099513;28;20129;-33
2024/01/18 04:01:30;;;;;;;43.75;27.63;;;-0.70;99.90;;;;;;5100099;28;20032;-36
2024/01/18 04:03:56;;;;;;;35.67;23.30;;;-0.70;99.90;;;;;;5100176;28;20028;-36
2024/01/18 04:06:22;;;;;;;32.25;20.75;;;-0.70;99.90;;;;;;5100608;28;20031;-36
2024/01/18 04:08:47;;;;;;;35.08;22.25;;;-0.80;99.90;;;;;;5100710;28;20107;-34
2024/01/18 04:11:14;;;;;;;43.28;25.88;;;-0.70;99.90;;;;;;5099218;28;20143;-35
2024/01/18 04:13:39;;;;;;;37.08;22.63;;;-0.80;99.90;;;;;;5099677;28;20034;-38
2024/01/18 04:16:08;;;;;;;38.25;23.33;;;-0.80;99.90;;;;;;5100008;28;20036;-36
2024/01/18 04:18:34;;;;;;;32.60;20.38;;;-0.70;99.90;;;;;;5099475;28;20062;-35
2024/01/18 04:20:59;;;;;;;33.63;20.83;;;-0.70;99.90;;;;;;5099558;28;20099;-37
2024/01/18 04:23:25;;;;;;;30.40;20.13;;;-0.80;99.90;;;;;;5100288;28;20032;-34
2024/01/18 04:25:52;;;;;;;30.08;19.58;;;-0.70;99.90;;;;;;5098516;28;20111;-35
2024/01/18 04:28:21;;;;;;;27.77;17.27;;;-0.70;99.90;;;;;;5100018;28;20055;-37
2024/01/18 04:30:47;;;;;;;27.05;16.55;;;-0.80;99.90;;;;;;5099922;28;20016;-38
2024/01/18 04:33:13;;;;;;;35.10;23.15;;;-0.80;99.90;;;;;;5099696;28;20016;-36
2024/01/18 04:35:39;;;;;;;37.72;23.48;;;-0.70;99.90;;;;;;5099931;28;20757;-38
2024/01/18 04:38:06;;;;;;;35.08;23.67;;;-0.80;99.90;;;;;;5099956;28;20016;-37
2024/01/18 04:40:35;;;;;;;27.33;18.98;;;-0.80;99.90;;;;;;5099273;28;20019;-37
2024/01/18 04:43:01;;;;;;;30.83;19.75;;;-0.80;99.90;;;;;;5100097;28;20106;-35
2024/01/18 04:45:27;;;;;;;34.00;21.80;;;-0.80;99.90;;;;;;5100091;28;20028;-37
2024/01/18 04:47:53;;;;;;;37.17;24.00;;;-0.90;99.90;;;;;;5098743;28;20027;-37
2024/01/18 04:50:24;;;;;;;34.45;22.83;;;-0.90;99.90;;;;;;5099977;28;20020;-37
2024/01/18 04:52:50;;;;;;;32.10;19.98;;;-0.90;99.90;;;;;;5099731;28;20028;-37
2024/01/18 04:55:16;;;;;;;24.38;17.77;;;-0.90;99.90;;;;;;5099047;28;20028;-37
2024/01/18 04:57:43;;;;;;;30.60;20.40;;;-0.90;99.90;;;;;;5099521;28;20494;-36
2024/01/18 05:00:10;;;;;;;28.95;19.10;;;-1.00;99.90;;;;;;5100076;28;20397;-32
2024/01/18 05:02:39;;;;;;;24.58;16.77;;;-1.00;99.90;;;;;;5099152;28;20023;-36
2024/01/18 05:05:08;;;;;;;21.83;15.65;;;-1.00;99.90;;;;;;5099197;28;20032;-33
2024/01/18 05:07:34;;;;;;;26.00;16.23;;;-1.00;99.90;;;;;;5098820;28;20032;-34
2024/01/18 05:09:59;;;;;;;27.65;16.85;;;-1.00;99.90;;;;;;5099555;28;20499;-36
2024/01/18 05:12:25;;;;;;;19.77;13.57;;;-1.00;99.90;;;;;;5099610;28;20038;-35
2024/01/18 05:14:51;;;;;;;18.57;12.70;;;-1.00;99.90;;;;;;5099530;28;20043;-36
2024/01/18 05:17:16;;;;;;;16.85;11.80;;;-1.00;99.90;;;;;;5099638;28;20040;-33
2024/01/18 05:19:43;;;;;;;18.83;13.10;;;-1.00;99.90;;;;;;5100136;28;20126;-38
2024/01/18 05:22:11;;;;;;;21.10;14.10;;;-1.00;99.90;;;;;;5099597;28;20059;-36
2024/01/18 05:24:37;;;;;;;20.00;13.35;;;-1.00;99.90;;;;;;5099460;28;20123;-34
2024/01/18 05:27:02;;;;;;;18.38;12.88;;;-1.10;99.90;;;;;;5098924;28;20722;-36
2024/01/18 05:29:28;;;;;;;17.38;11.60;;;-1.00;99.90;;;;;;5099193;28;20024;-33
2024/01/18 05:31:54;;;;;;;14.05;9.70;;;-1.00;99.90;;;;;;5098837;28;20110;-37
2024/01/18 05:34:20;;;;;;;15.15;10.82;;;-1.00;99.90;;;;;;5099589;28;20576;-33
2024/01/18 05:36:46;;;;;;;17.20;10.48;;;-1.00;99.90;;;;;;5098942;28;20034;-36
2024/01/18 05:39:11;;;;;;;16.05;10.07;;;-1.00;99.90;;;;;;5097951;28;20035;-37
2024/01/18 05:41:37;;;;;;;16.45;10.15;;;-1.00;99.90;;;;;;5099252;28;20032;-33
2024/01/18 05:44:03;;;;;;;13.75;9.52;;;-1.00;99.90;;;;;;5098894;28;20024;-37
2024/01/18 05:46:28;;;;;;;13.05;8.35;;;-1.00;99.90;;;;;;5099713;28;20031;-39
2024/01/18 05:48:54;;;;;;;12.07;8.90;;;-1.00;99.90;;;;;;5099522;28;20028;-36
2024/01/18 05:51:20;;;;;;;14.93;9.97;;;-1.00;99.90;;;;;;5098967;28;20030;-32
2024/01/18 05:53:45;;;;;;;21.60;9.70;;;-0.90;99.90;;;;;;5099774;28;20075;-37
2024/01/18 05:56:16;;;;;;;13.60;8.52;;;-0.90;99.90;;;;;;5099949;28;20596;-37
2024/01/18 05:58:42;;;;;;;10.45;7.65;;;-0.90;99.90;;;;;;5100294;28;20023;-34
2024/01/18 06:01:09;;;;;;;12.20;8.75;;;-0.90;99.90;;;;;;5103492;28;20027;-36
2024/01/18 06:03:34;;;;;;;13.15;8.43;;;-0.90;99.90;;;;;;5102199;28;20043;-36
2024/01/18 06:06:00;;;;;;;14.97;8.90;;;-0.90;99.90;;;;;;5102778;28;20031;-37
2024/01/18 06:08:26;;;;;;;18.83;11.05;;;-0.90;99.90;;;;;;5103107;28;20027;-44
2024/01/18 06:10:52;;;;;;;14.83;8.87;;;-0.90;99.90;;;;;;5101679;28;20047;-38
2024/01/18 06:13:17;;;;;;;15.35;10.27;;;-0.90;99.90;;;;;;5102559;28;20039;-37
2024/01/18 06:15:43;;;;;;;15.15;10.20;;;-0.90;99.90;;;;;;5102646;28;20084;-38
2024/01/18 06:18:09;;;;;;;17.35;10.20;;;-0.90;99.90;;;;;;5101779;28;20462;-35
2024/01/18 06:20:35;;;;;;;18.50;11.55;;;-0.90;99.90;;;;;;5102085;28;20500;-38
2024/01/18 06:23:01;;;;;;;17.05;10.55;;;-1.00;99.90;;;;;;5102381;28;20035;-37
2024/01/18 06:25:27;;;;;;;16.92;10.23;;;-1.00;99.90;;;;;;5101616;28;20028;-38
2024/01/18 06:27:53;;;;;;;17.08;9.95;;;-0.90;99.90;;;;;;5102006;28;20038;-33
2024/01/18 06:30:19;;;;;;;15.88;9.10;;;-1.00;99.90;;;;;;5101751;28;20023;-36
2024/01/18 06:32:45;;;;;;;18.27;10.52;;;-1.00;99.90;;;;;;5102965;28;20031;-37
2024/01/18 06:35:11;;;;;;;15.50;9.60;;;-1.00;99.90;;;;;;5101902;28;20126;-35
2024/01/18 06:37:37;;;;;;;12.57;8.67;;;-1.00;99.90;;;;;;5101332;28;20040;-36
2024/01/18 06:40:04;;;;;;;12.52;8.15;;;-1.00;99.90;;;;;;5100588;28;20896;-36
2024/01/18 06:42:30;;;;;;;13.15;7.35;;;-1.00;99.90;;;;;;5099415;28;20044;-36
2024/01/18 06:44:56;;;;;;;15.82;8.27;;;-1.00;99.90;;;;;;5100587;28;20530;-39
2024/01/18 06:47:21;;;;;;;13.88;7.93;;;-1.00;99.90;;;;;;5100119;28;20027;-36
2024/01/18 06:49:49;;;;;;;13.05;7.30;;;-1.00;99.90;;;;;;5101428;28;20023;-38
2024/01/18 06:52:15;;;;;;;10.48;7.38;;;-1.00;99.90;;;;;;5100668;28;20080;-36
2024/01/18 06:54:44;;;;;;;8.93;5.82;;;-1.10;99.90;;;;;;5100746;28;20019;-37
2024/01/18 06:57:09;;;;;;;10.85;5.93;;;-1.00;99.90;;;;;;5101048;28;20484;-36
2024/01/18 06:59:36;;;;;;;7.90;6.30;;;-1.00;99.90;;;;;;5100967;28;20089;-34
2024/01/18 07:02:02;;;;;;;14.52;7.90;;;-1.00;99.90;;;;;;5100221;28;20023;-33
2024/01/18 07:04:28;;;;;;;8.73;6.15;;;-1.00;99.90;;;;;;5100612;28;20054;-38
2024/01/18 07:06:54;;;;;;;7.78;5.68;;;-1.00;99.90;;;;;;5099948;28;20525;-37
2024/01/18 07:09:19;;;;;;;8.80;5.83;;;-1.10;99.90;;;;;;5100296;28;20043;-38
2024/01/18 07:11:46;;;;;;;7.60;5.95;;;-1.10;99.90;;;;;;5099470;28;20439;-36
2024/01/18 07:14:12;;;;;;;7.00;5.30;;;-1.10;99.90;;;;;;5099854;28;20475;-36
2024/01/18 07:16:37;;;;;;;6.18;4.28;;;-1.10;99.90;;;;;;5099688;28;20112;-35
2024/01/18 07:19:04;;;;;;;6.10;4.00;;;-1.10;99.90;;;;;;5099076;28;20137;-35
2024/01/18 07:21:30;;;;;;;6.63;4.32;;;-1.10;99.90;;;;;;5097727;28;20027;-38
2024/01/18 07:23:55;;;;;;;6.47;4.60;;;-1.10;99.90;;;;;;5099489;28;20024;-37
2024/01/18 07:26:21;;;;;;;7.10;5.38;;;-1.10;99.90;;;;;;5099264;28;20031;-35
2024/01/18 07:28:48;;;;;;;10.87;6.80;;;-1.10;99.90;;;;;;5098810;28;20497;-37
2024/01/18 07:31:14;;;;;;;10.65;7.60;;;-1.10;99.90;;;;;;5099136;28;20027;-37
2024/01/18 07:33:40;;;;;;;12.73;7.30;;;-1.10;99.90;;;;;;5101202;28;20077;-36
2024/01/18 07:36:06;;;;;;;6.85;5.40;;;-1.10;99.90;;;;;;5099951;28;20285;-38
2024/01/18 07:38:31;;;;;;;9.00;5.07;;;-1.10;99.90;;;;;;5100834;28;20119;-33
2024/01/18 07:40:57;;;;;;;6.45;4.70;;;-1.20;99.90;;;;;;5100574;28;20035;-35
2024/01/18 07:43:24;;;;;;;7.47;5.47;;;-1.20;99.90;;;;;;5099804;28;20027;-35
2024/01/18 07:45:49;;;;;;;7.13;5.57;;;-1.20;99.90;;;;;;5099742;28;20063;-36
2024/01/18 07:48:15;;;;;;;7.82;5.45;;;-1.20;99.90;;;;;;5100575;28;20183;-33
2024/01/18 07:50:41;;;;;;;8.82;5.70;;;-1.20;99.90;;;;;;5099972;28;20028;-36
2024/01/18 07:53:07;;;;;;;10.67;6.13;;;-1.20;99.90;;;;;;5100582;28;20019;-35
2024/01/18 07:55:33;;;;;;;7.93;5.85;;;-1.20;99.90;;;;;;5100783;28;20030;-33
2024/01/18 07:57:59;;;;;;;9.27;6.13;;;-1.30;99.90;;;;;;5099828;28;20126;-38
2024/01/18 08:00:24;;;;;;;9.82;6.70;;;-1.30;99.90;;;;;;5100360;28;20024;-36
2024/01/18 08:02:50;;;;;;;9.90;6.63;;;-1.30;99.90;;;;;;5099814;28;20035;-34
2024/01/18 08:05:16;;;;;;;10.48;6.70;;;-1.30;99.90;;;;;;5099842;28;20031;-37
2024/01/18 08:07:41;;;;;;;10.10;6.82;;;-1.30;99.90;;;;;;5101061;28;20401;-34
2024/01/18 08:10:10;;;;;;;9.97;6.87;;;-1.30;99.90;;;;;;5099613;28;20130;-34
2024/01/18 08:12:37;;;;;;;9.40;6.95;;;-1.30;99.90;;;;;;5099895;28;20030;-31
2024/01/18 08:15:04;;;;;;;10.57;7.30;;;-1.30;99.90;;;;;;5099275;28;20483;-36
2024/01/18 08:17:29;;;;;;;11.33;6.43;;;-1.30;99.90;;;;;;5098971;28;20402;-32
2024/01/18 08:19:55;;;;;;;9.95;6.78;;;-1.30;99.90;;;;;;5100049;28;20051;-38
2024/01/18 08:22:20;;;;;;;9.23;6.60;;;-1.30;99.90;;;;;;5100327;28;20055;-35
2024/01/18 08:24:47;;;;;;;8.57;6.67;;;-1.30;99.90;;;;;;5100301;28;20081;-34
2024/01/18 08:27:13;;;;;;;9.60;6.85;;;-1.30;99.90;;;;;;5100185;28;20391;-37
2024/01/18 08:29:39;;;;;;;11.45;7.50;;;-1.30;99.90;;;;;;5099888;28;20470;-34
2024/01/18 08:32:05;;;;;;;12.27;7.72;;;-1.40;99.90;;;;;;5099268;28;20020;-38
2024/01/18 08:34:33;;;;;;;12.35;8.32;;;-1.40;99.90;;;;;;5099880;28;20121;-31
2024/01/18 08:36:58;;;;;;;13.30;8.23;;;-1.40;99.90;;;;;;5099968;28;20588;-36
2024/01/18 08:39:24;;;;;;;14.98;9.10;;;-1.40;99.90;;;;;;5098885;28;20020;-37
2024/01/18 08:41:50;;;;;;;12.55;8.23;;;-1.40;99.90;;;;;;5099565;28;20024;-36
2024/01/18 08:44:16;;;;;;;11.57;8.48;;;-1.40;99.90;;;;;;5099929;28;20030;-37
2024/01/18 08:46:41;;;;;;;11.23;6.97;;;-1.40;99.90;;;;;;5099883;28;20084;-36
2024/01/18 08:49:08;;;;;;;14.25;8.77;;;-1.30;99.90;;;;;;5099770;28;20016;-36
2024/01/18 08:51:33;;;;;;;10.88;7.93;;;-1.30;99.90;;;;;;5099423;28;20050;-38
2024/01/18 08:53:59;;;;;;;13.85;8.20;;;-1.30;99.90;;;;;;5098257;28;20731;-35
2024/01/18 08:56:24;;;;;;;10.10;7.45;;;-1.30;99.90;;;;;;5099701;28;20152;-38
2024/01/18 08:58:50;;;;;;;11.88;7.47;;;-1.20;99.90;;;;;;5100028;28;20030;-31
2024/01/18 09:01:16;;;;;;;11.48;7.47;;;-1.20;99.90;;;;;;5098836;28;20114;-39
2024/01/18 09:03:41;;;;;;;10.43;6.90;;;-1.10;99.90;;;;;;5099372;28;20663;-38
2024/01/18 09:06:07;;;;;;;8.80;6.68;;;-1.10;99.90;;;;;;5099585;28;20510;-34
2024/01/18 09:08:36;;;;;;;9.35;6.45;;;-1.10;99.90;;;;;;5098981;28;20028;-35
2024/01/18 09:11:01;;;;;;;8.38;5.97;;;-1.10;99.90;;;;;;5099348;28;20077;-37
2024/01/18 09:13:27;;;;;;;9.05;6.63;;;-1.10;99.90;;;;;;5098489;28;20031;-34
2024/01/18 09:15:53;;;;;;;10.07;6.50;;;-1.10;99.90;;;;;;5098925;28;20057;-37
2024/01/18 09:18:19;;;;;;;10.13;6.50;;;-1.00;99.90;;;;;;5099758;28;20605;-37
2024/01/18 09:20:45;;;;;;;9.25;6.53;;;-1.00;99.90;;;;;;5098404;28;20027;-36
2024/01/18 09:23:12;;;;;;;10.18;6.63;;;-1.00;99.90;;;;;;5097706;28;20028;-36
2024/01/18 09:25:39;;;;;;;13.00;7.22;;;-0.90;99.90;;;;;;5099854;28;20068;-38
2024/01/18 09:28:07;;;;;;;9.52;6.18;;;-0.90;99.90;;;;;;5097820;28;20161;-34
2024/01/18 09:30:34;;;;;;;7.22;5.78;;;-0.90;99.90;;;;;;5098491;28;20058;-37
2024/01/18 09:33:00;;;;;;;7.35;5.63;;;-0.90;99.90;;;;;;5099535;28;20106;-33
2024/01/18 09:35:26;;;;;;;7.03;5.60;;;-0.80;99.90;;;;;;5103050;28;20027;-36
2024/01/18 09:37:51;;;;;;;6.55;5.30;;;-0.80;99.90;;;;;;5103575;28;20089;-35
2024/01/18 09:40:17;;;;;;;11.95;6.38;;;-0.80;99.90;;;;;;5103635;28;20023;-34
2024/01/18 09:42:47;;;;;;;9.77;5.90;;;-0.70;99.90;;;;;;5102565;28;20032;-39
2024/01/18 09:45:14;;;;;;;8.43;6.20;;;-0.70;99.90;;;;;;5102345;28;20030;-38
2024/01/18 09:47:44;;;;;;;8.43;6.35;;;-0.60;99.90;;;;;;5103738;28;20463;-37
2024/01/18 09:50:11;;;;;;;11.32;6.60;;;-0.60;99.90;;;;;;5102677;28;20034;-37
2024/01/18 09:52:37;;;;;;;7.72;6.40;;;-0.60;99.90;;;;;;5103384;28;20027;-36
2024/01/18 09:55:04;;;;;;;9.38;7.03;;;-0.50;99.90;;;;;;5102962;28;20023;-38
2024/01/18 09:57:32;;;;;;;9.10;6.70;;;-0.50;99.90;;;;;;5102332;28;20031;-37
2024/01/18 10:00:00;;;;;;;12.38;6.53;;;-0.50;99.90;;;;;;5103184;28;20035;-37
2024/01/18 10:02:29;;;;;;;9.63;5.80;;;-0.40;99.90;;;;;;5102712;28;20851;-33
2024/01/18 10:05:00;;;;;;;8.75;5.28;;;-0.40;99.90;;;;;;5102469;28;20031;-36
2024/01/18 10:07:27;;;;;;;7.47;5.40;;;-0.30;99.90;;;;;;5101804;28;20031;-37
2024/01/18 10:09:53;;;;;;;7.07;4.95;;;-0.30;99.90;;;;;;5101905;28;20063;-34
2024/01/18 10:12:19;;;;;;;8.13;5.03;;;-0.20;99.90;;;;;;5102385;28;20230;-35
2024/01/18 10:14:45;;;;;;;8.23;5.50;;;-0.10;99.90;;;;;;5103307;28;20489;-39
2024/01/18 10:17:31;;;;;;;9.40;6.10;;;-0.10;99.90;;;;;;5101760;28;20550;-38
2024/01/18 10:19:57;;;;;;;6.85;5.15;;;-0.10;99.90;;;;;;5081535;28;20525;-36
2024/01/18 10:22:22;;;;;;;6.60;4.05;;;0.00;99.90;;;;;;5096334;28;20936;-37
2024/01/18 10:24:58;;;;;;;5.35;4.50;;;0.00;99.90;;;;;;5102478;28;20028;-34
2024/01/18 10:27:23;;;;;;;6.22;4.10;;;0.10;99.90;;;;;;5102251;28;20069;-37
2024/01/18 10:29:50;;;;;;;3.20;2.90;;;0.20;99.90;;;;;;5102700;28;20027;-36
2024/01/18 10:32:16;;;;;;;4.57;3.00;;;0.30;99.90;;;;;;5101488;28;20043;-38
2024/01/18 10:34:42;;;;;;;3.47;2.67;;;0.30;99.90;;;;;;5102282;28;20692;-36
2024/01/18 10:37:15;;;;;;;3.25;2.28;;;0.40;99.90;;;;;;5102023;28;20043;-36
2024/01/18 10:39:42;;;;;;;7.78;4.20;;;0.50;99.90;;;;;;5101934;28;20724;-36
2024/01/18 10:42:09;;;;;;;3.70;2.50;;;0.50;99.90;;;;;;5101996;28;20023;-36
2024/01/18 10:44:41;;;;;;;4.25;2.55;;;0.70;99.90;;;;;;5101397;28;20020;-37
2024/01/18 10:47:15;;;;;;;4.93;2.78;;;0.90;99.90;;;;;;5100709;28;20394;-36
2024/01/18 10:49:43;;;;;;;4.00;2.67;;;1.00;99.90;;;;;;5091079;28;20878;-34
2024/01/18 10:52:11;;;;;;;4.97;2.80;;;1.00;99.90;;;;;;5100844;28;20020;-34
2024/01/18 10:54:37;;;;;;;4.18;2.58;;;1.10;99.90;;;;;;5101252;28;20043;-37
2024/01/18 10:57:06;;;;;;;3.55;2.60;;;1.20;99.90;;;;;;5100601;28;20043;-36
2024/01/18 10:59:31;;;;;;;7.82;4.00;;;1.20;99.90;;;;;;5096905;28;20565;-35
2024/01/18 11:02:01;;;;;;;5.28;2.75;;;1.20;99.90;;;;;;5101361;28;20031;-40
2024/01/18 11:04:28;;;;;;;6.93;3.13;;;1.30;99.90;;;;;;5102053;28;20051;-40
2024/01/18 11:07:00;;;;;;;5.05;3.10;;;1.40;99.90;;;;;;5100829;28;20039;-33
2024/01/18 11:09:28;;;;;;;6.97;3.50;;;1.50;99.90;;;;;;5100763;28;20047;-35
2024/01/18 11:11:56;;;;;;;6.25;2.92;;;1.60;99.90;;;;;;5101400;28;20026;-32
2024/01/18 11:14:22;;;;;;;3.45;3.00;;;1.70;99.90;;;;;;5100333;28;20024;-37
2024/01/18 11:16:48;;;;;;;5.50;2.70;;;1.70;99.90;;;;;;5101618;28;20047;-34
2024/01/18 11:19:36;;;;;;;3.97;2.83;;;1.80;99.90;;;;;;5101359;28;20215;-38
2024/01/18 11:22:02;;;;;;;3.00;2.40;;;1.90;99.90;;;;;;5080113;28;20760;-37
2024/01/18 11:24:28;;;;;;;3.13;2.50;;;1.90;99.90;;;;;;5095255;28;20027;-37
2024/01/18 11:26:57;;;;;;;4.40;2.35;;;1.90;99.90;;;;;;5101245;28;20035;-38
2024/01/18 11:29:25;;;;;;;3.70;2.53;;;1.90;99.90;;;;;;5100216;28;20027;-33
2024/01/18 11:31:54;;;;;;;3.33;2.20;;;2.00;99.90;;;;;;5100905;28;20023;-38
2024/01/18 11:34:38;;;;;;;5.55;2.25;;;2.00;99.90;;;;;;5100288;28;20027;-36
2024/01/18 11:37:17;;;;;;;3.78;2.38;;;2.00;99.90;;;;;;5101241;28;20035;-35
2024/01/18 11:39:49;;;;;;;3.72;2.60;;;2.00;99.90;;;;;;5101684;28;20048;-36
2024/01/18 11:42:19;;;;;;;6.15;2.70;;;2.10;99.90;;;;;;5100506;28;20069;-37
2024/01/18 11:44:53;;;;;;;7.20;2.65;;;2.20;99.90;;;;;;5100868;28;20015;-39
2024/01/18 11:47:19;;;;;;;2.83;2.28;;;2.20;99.90;;;;;;5100379;28;20032;-35
2024/01/18 11:49:46;;;;;;;4.20;2.55;;;2.30;99.90;;;;;;5100098;28;20024;-34
2024/01/18 11:52:13;;;;;;;4.00;2.60;;;2.30;99.90;;;;;;5100504;28;20023;-34
2024/01/18 11:54:40;;;;;;;5.75;2.60;;;2.40;99.90;;;;;;5100240;28;20020;-36
2024/01/18 11:57:14;;;;;;;2.80;2.60;;;2.50;99.90;;;;;;5098183;28;20042;-34
2024/01/18 11:59:41;;;;;;;4.32;1.88;;;2.60;99.90;;;;;;5100211;28;20815;-38
2024/01/18 12:02:08;;;;;;;3.10;1.90;;;2.60;99.90;;;;;;5099106;28;20055;-36
2024/01/18 12:04:36;;;;;;;1.50;1.40;;;2.70;99.90;;;;;;5098647;28;20019;-34
2024/01/18 12:07:02;;;;;;;2.35;2.13;;;2.90;99.90;;;;;;5098795;28;21389;-34
2024/01/18 12:09:30;;;;;;;5.60;2.10;;;3.00;99.90;;;;;;5097915;28;20565;-34
2024/01/18 12:11:57;;;;;;;3.15;1.77;;;3.10;99.90;;;;;;5098838;28;20028;-35
2024/01/18 12:14:23;;;;;;;2.85;1.85;;;3.20;99.90;;;;;;5098751;28;20799;-32
2024/01/18 12:16:49;;;;;;;3.80;1.52;;;3.20;99.90;;;;;;5099633;28;20262;-33
2024/01/18 12:19:31;;;;;;;4.88;1.67;;;3.20;99.90;;;;;;5099894;28;20659;-36
2024/01/18 12:21:57;;;;;;;4.70;2.08;;;3.30;99.90;;;;;;5099598;28;20788;-36
2024/01/18 12:24:23;;;;;;;3.67;1.80;;;3.20;99.90;;;;;;5099765;28;20024;-36
2024/01/18 12:26:48;;;;;;;2.50;1.58;;;3.20;99.90;;;;;;5100104;28;20135;-37
2024/01/18 12:29:14;;;;;;;3.72;1.73;;;3.20;99.90;;;;;;5099694;28;20380;-35
2024/01/18 12:31:40;;;;;;;2.95;1.30;;;3.20;99.90;;;;;;5099293;28;20040;-36
2024/01/18 12:34:08;;;;;;;3.22;1.35;;;3.30;99.90;;;;;;5099886;28;20027;-36
2024/01/18 12:36:34;;;;;;;3.42;1.50;;;3.40;99.90;;;;;;5100673;28;20035;-32